Time;durP1;ratioP1;P1;durP2;ratioP2;P2;SDS_P1;SDS_P2;PMS_P1;PMS_P2;Temp;Humidity;BMP_temperature;BMP_pressure;BME280_temperature;BME280_humidity;BME280_pressure;Samples;Min_cycle;Max_cycle;Signal;HPM_P1;HPM_P2
2022/09/19 00:01:23;;;;;;;0.00;0.00;;;9.40;99.90;;;;;;4996560;28;20250;-72
2022/09/19 00:03:54;;;;;;;0.00;0.00;;;9.40;99.90;;;;;;4996619;28;20204;-71
2022/09/19 00:06:23;;;;;;;0.00;0.00;;;9.30;99.90;;;;;;4996362;28;20196;-70
2022/09/19 00:08:51;;;;;;;0.00;0.00;;;9.40;99.90;;;;;;4995992;28;20200;-70
2022/09/19 00:11:21;;;;;;;0.00;0.00;;;9.40;99.90;;;;;;4996418;28;20200;-70
2022/09/19 00:13:50;;;;;;;0.00;0.00;;;9.40;99.90;;;;;;4996511;28;20203;-71
2022/09/19 00:16:20;;;;;;;0.00;0.00;;;9.40;99.90;;;;;;4996242;28;20227;-71
2022/09/19 00:18:48;;;;;;;0.00;0.00;;;9.30;99.90;;;;;;4995920;28;20246;-70
2022/09/19 00:21:20;;;;;;;0.00;0.00;;;9.30;99.90;;;;;;4995715;28;20640;-71
2022/09/19 00:26:34;;;;;;;0.00;0.00;;;9.30;99.90;;;;;;4996087;28;20200;-71
2022/09/19 00:29:02;;;;;;;0.00;0.00;;;9.30;99.90;;;;;;4995639;28;20207;-71
2022/09/19 00:31:30;;;;;;;0.00;0.00;;;9.20;99.90;;;;;;4996114;28;20210;-71
2022/09/19 00:33:58;;;;;;;0.00;0.00;;;9.30;99.90;;;;;;4995817;28;20290;-71
2022/09/19 00:36:27;;;;;;;0.00;0.00;;;9.20;99.90;;;;;;4995826;28;20224;-71
2022/09/19 00:38:55;;;;;;;0.00;0.00;;;9.20;99.90;;;;;;4995618;28;20207;-71
2022/09/19 00:41:26;;;;;;;0.00;0.00;;;9.30;99.90;;;;;;4995838;28;20200;-71
2022/09/19 00:43:57;;;;;;;0.00;0.00;;;9.20;99.90;;;;;;4995820;28;20204;-71
2022/09/19 00:46:27;;;;;;;0.00;0.00;;;9.20;99.90;;;;;;4995296;28;20200;-70
2022/09/19 00:48:59;;;;;;;0.00;0.00;;;9.20;99.90;;;;;;4995203;28;20207;-70
2022/09/19 00:51:34;;;;;;;0.00;0.00;;;9.20;99.90;;;;;;4995718;28;20258;-70
2022/09/19 00:54:07;;;;;;;0.00;0.00;;;9.30;99.90;;;;;;4995641;28;20269;-71
2022/09/19 00:56:35;;;;;;;0.00;0.00;;;9.30;99.90;;;;;;4995171;28;20223;-71
2022/09/19 00:59:05;;;;;;;0.00;0.00;;;9.20;99.90;;;;;;4995297;28;20207;-70
2022/09/19 01:01:34;;;;;;;0.00;0.00;;;9.20;99.90;;;;;;4995510;28;20204;-71
2022/09/19 01:04:02;;;;;;;0.00;0.00;;;9.20;99.90;;;;;;4995365;28;20671;-72
2022/09/19 01:06:41;;;;;;;0.00;0.00;;;9.10;99.90;;;;;;4995250;28;20678;-71
2022/09/19 01:09:25;;;;;;;0.00;0.00;;;9.10;99.90;;;;;;4995180;28;20249;-70
2022/09/19 01:12:16;;;;;;;0.00;0.00;;;9.10;99.90;;;;;;4995007;28;20212;-70
2022/09/19 01:15:04;;;;;;;0.00;0.00;;;9.10;99.90;;;;;;4995230;28;20207;-70
2022/09/19 01:17:46;;;;;;;0.00;0.00;;;9.10;99.90;;;;;;4994970;28;20274;-70
2022/09/19 01:20:32;;;;;;;0.00;0.00;;;9.00;99.90;;;;;;4994645;28;20235;-70
2022/09/19 01:23:16;;;;;;;0.00;0.00;;;9.00;99.90;;;;;;4995105;28;20267;-71
2022/09/19 01:25:52;;;;;;;0.00;0.00;;;9.00;99.90;;;;;;4994778;28;20613;-70
2022/09/19 01:28:24;;;;;;;0.00;0.00;;;9.00;99.90;;;;;;4994933;28;20203;-70
2022/09/19 01:33:41;;;;;;;0.00;0.00;;;9.00;99.90;;;;;;4994631;28;20372;-70
2022/09/19 01:36:14;;;;;;;0.00;0.00;;;9.00;99.90;;;;;;4994569;28;20255;-70
2022/09/19 01:38:45;;;;;;;0.00;0.00;;;9.10;99.90;;;;;;4994626;28;20208;-70
2022/09/19 01:41:13;;;;;;;0.00;0.00;;;9.00;99.90;;;;;;4994725;28;20211;-70
2022/09/19 01:43:43;;;;;;;0.00;0.00;;;9.00;99.90;;;;;;4994653;28;20258;-70
2022/09/19 01:46:27;;;;;;;0.00;0.00;;;9.10;99.90;;;;;;4995118;28;20230;-70
2022/09/19 01:49:06;;;;;;;0.00;0.00;;;9.10;99.90;;;;;;4994162;28;20200;-70
2022/09/19 01:51:40;;;;;;;0.00;0.00;;;9.00;99.90;;;;;;4994439;28;20725;-72
2022/09/19 01:54:27;;;;;;;0.00;0.00;;;9.00;99.90;;;;;;4994734;28;20258;-70
2022/09/19 01:57:02;;;;;;;0.00;0.00;;;9.00;99.90;;;;;;4994199;28;20219;-70
2022/09/19 01:59:46;;;;;;;0.00;0.00;;;9.00;99.90;;;;;;4993609;28;20303;-79
2022/09/19 02:02:22;;;;;;;0.00;0.00;;;9.00;99.90;;;;;;4995002;28;20211;-72
2022/09/19 02:04:58;;;;;;;0.00;0.00;;;9.00;99.90;;;;;;4994643;28;20199;-73
2022/09/19 02:07:39;;;;;;;0.00;0.00;;;9.00;99.90;;;;;;4995026;28;20277;-71
2022/09/19 02:10:11;;;;;;;0.00;0.00;;;9.00;99.90;;;;;;4994360;28;20596;-71
2022/09/19 02:12:43;;;;;;;0.00;0.00;;;9.00;99.90;;;;;;4994457;28;20204;-71
2022/09/19 02:20:33;;;;;;;0.00;0.00;;;8.90;99.90;;;;;;5096076;22;20708;-88
2022/09/19 02:23:10;;;;;;;0.00;0.00;;;8.90;99.90;;;;;;5056439;28;20261;-86
2022/09/19 02:25:39;;;;;;;0.00;0.00;;;8.90;99.90;;;;;;5057936;28;20232;-87
2022/09/19 02:28:11;;;;;;;0.00;0.00;;;8.90;99.90;;;;;;5057973;28;20220;-87
2022/09/19 02:30:42;;;;;;;0.00;0.00;;;8.90;99.90;;;;;;5054102;28;20219;-88
2022/09/19 02:33:10;;;;;;;0.00;0.00;;;8.90;99.90;;;;;;5044699;28;20202;-87
2022/09/19 02:35:46;;;;;;;0.00;0.00;;;9.00;99.90;;;;;;5042958;28;20719;-87
2022/09/19 02:38:22;;;;;;;0.00;0.00;;;8.90;99.90;;;;;;5042009;28;20198;-87
2022/09/19 02:40:55;;;;;;;0.00;0.00;;;8.90;99.90;;;;;;5032815;28;20230;-87
2022/09/19 02:43:34;;;;;;;0.00;0.00;;;8.90;99.90;;;;;;5024590;28;20277;-87
2022/09/19 02:46:07;;;;;;;0.00;0.00;;;9.00;99.90;;;;;;5043841;28;20198;-86
2022/09/19 02:48:46;;;;;;;0.00;0.00;;;8.90;99.90;;;;;;5054878;28;20232;-85
2022/09/19 02:51:20;;;;;;;0.00;0.00;;;8.90;99.90;;;;;;5041344;28;20218;-87
2022/09/19 02:53:54;;;;;;;0.00;0.00;;;8.90;99.90;;;;;;5041468;28;20198;-87
2022/09/19 02:56:27;;;;;;;0.00;0.00;;;8.90;99.90;;;;;;5042035;28;20202;-87
2022/09/19 02:58:59;;;;;;;0.00;0.00;;;8.90;99.90;;;;;;5041129;28;20230;-87
2022/09/19 03:01:30;;;;;;;0.00;0.00;;;8.90;99.90;;;;;;5038449;28;20234;-86
2022/09/19 03:04:14;;;;;;;0.00;0.00;;;8.90;99.90;;;;;;5037883;28;20229;-88
2022/09/19 03:06:51;;;;;;;0.00;0.00;;;8.90;99.90;;;;;;5039431;28;20736;-88
2022/09/19 03:09:22;;;;;;;0.00;0.00;;;9.00;99.90;;;;;;5040156;28;20197;-88
2022/09/19 03:11:57;;;;;;;0.00;0.00;;;8.90;99.90;;;;;;5047875;28;20233;-86
2022/09/19 03:14:25;;;;;;;0.00;0.00;;;8.90;99.90;;;;;;5047502;28;20213;-87
2022/09/19 03:16:56;;;;;;;0.00;0.00;;;8.90;99.90;;;;;;5044245;28;20213;-87
2022/09/19 03:19:24;;;;;;;0.00;0.00;;;8.90;99.90;;;;;;5045745;28;20641;-86
2022/09/19 03:21:55;;;;;;;0.00;0.00;;;8.90;99.90;;;;;;5045343;28;20256;-87
2022/09/19 03:24:23;;;;;;;0.00;0.00;;;8.90;99.90;;;;;;5044617;28;20206;-87
2022/09/19 03:26:51;;;;;;;0.00;0.00;;;8.90;99.90;;;;;;5044653;28;20225;-87
2022/09/19 03:29:19;;;;;;;0.00;0.00;;;8.80;99.90;;;;;;5044890;28;20264;-88
2022/09/19 03:31:50;;;;;;;0.00;0.00;;;8.90;99.90;;;;;;5045542;28;20218;-87
2022/09/19 03:34:19;;;;;;;0.00;0.00;;;8.80;99.90;;;;;;5045480;28;20191;-88
2022/09/19 03:36:48;;;;;;;0.00;0.00;;;8.80;99.90;;;;;;5042417;28;20199;-87
2022/09/19 03:39:18;;;;;;;0.00;0.00;;;8.80;99.90;;;;;;5042767;28;20229;-88
2022/09/19 03:41:45;;;;;;;0.00;0.00;;;8.80;99.90;;;;;;5041612;28;20476;-87
2022/09/19 03:44:14;;;;;;;0.00;0.00;;;8.80;99.90;;;;;;5039527;28;20202;-87
2022/09/19 03:46:43;;;;;;;0.00;0.00;;;8.80;99.90;;;;;;5041154;28;20210;-87
2022/09/19 03:49:11;;;;;;;0.00;0.00;;;8.80;99.90;;;;;;5059326;28;20220;-87
2022/09/19 03:51:39;;;;;;;0.00;0.00;;;8.80;99.90;;;;;;5045695;28;20561;-88
2022/09/19 03:54:07;;;;;;;0.00;0.00;;;8.80;99.90;;;;;;5044528;28;20260;-87
2022/09/19 03:56:36;;;;;;;0.00;0.00;;;8.80;99.90;;;;;;5043798;28;20206;-87
2022/09/19 03:59:04;;;;;;;0.00;0.00;;;8.80;99.90;;;;;;5042380;28;20222;-88
2022/09/19 04:01:32;;;;;;;0.00;0.00;;;8.80;99.90;;;;;;5042697;28;20226;-87
2022/09/19 04:04:00;;;;;;;0.00;0.00;;;8.80;99.90;;;;;;5041995;28;20194;-87
2022/09/19 04:06:28;;;;;;;0.00;0.00;;;8.80;99.90;;;;;;5042962;28;20198;-86
2022/09/19 04:08:55;;;;;;;0.00;0.00;;;8.80;99.90;;;;;;5045310;28;20203;-88
2022/09/19 04:11:23;;;;;;;0.00;0.00;;;8.80;99.90;;;;;;5043704;28;20218;-86
2022/09/19 04:13:52;;;;;;;0.00;0.00;;;8.90;99.90;;;;;;5042711;28;20201;-87
2022/09/19 04:16:20;;;;;;;0.00;0.00;;;8.90;99.90;;;;;;5039338;28;20218;-88
2022/09/19 04:18:54;;;;;;;0.00;0.00;;;8.90;99.90;;;;;;5044262;28;20551;-89
2022/09/19 04:21:23;;;;;;;0.00;0.00;;;8.90;99.90;;;;;;5043571;28;20230;-90
2022/09/19 04:23:50;;;;;;;0.00;0.00;;;8.90;99.90;;;;;;5041508;28;20210;-90
2022/09/19 04:26:21;;;;;;;0.00;0.00;;;8.90;99.90;;;;;;5042114;28;20669;-90
2022/09/19 04:28:49;;;;;;;0.00;0.00;;;9.00;99.90;;;;;;5042496;28;20179;-92
2022/09/19 04:31:18;;;;;;;0.00;0.00;;;9.10;99.90;;;;;;5043852;28;20222;-89
2022/09/19 04:33:46;;;;;;;0.00;0.00;;;9.30;99.90;;;;;;5044875;28;20262;-91
2022/09/19 04:36:14;;;;;;;0.00;0.00;;;9.40;99.90;;;;;;5043730;28;20336;-91
2022/09/19 04:38:42;;;;;;;0.00;0.00;;;9.50;99.90;;;;;;5043264;28;20233;-91
2022/09/19 04:41:09;;;;;;;0.00;0.00;;;9.70;99.90;;;;;;5043523;28;20271;-90
2022/09/19 04:43:37;;;;;;;0.00;0.00;;;9.70;99.90;;;;;;5043463;28;20199;-90
2022/09/19 04:46:06;;;;;;;0.00;0.00;;;9.80;99.90;;;;;;5043008;28;20246;-91
2022/09/19 04:48:40;;;;;;;0.00;0.00;;;9.90;99.90;;;;;;5046743;28;20250;-91
2022/09/19 04:51:07;;;;;;;0.00;0.00;;;9.90;99.90;;;;;;5056337;28;20704;-91
2022/09/19 04:53:38;;;;;;;0.00;0.00;;;10.00;99.90;;;;;;5043106;28;20855;-91
2022/09/19 04:56:06;;;;;;;0.00;0.00;;;10.00;99.90;;;;;;5042504;28;20610;-90
2022/09/19 04:58:34;;;;;;;0.00;0.00;;;10.00;99.90;;;;;;5043211;28;20218;-89
2022/09/19 05:01:02;;;;;;;0.00;0.00;;;10.10;99.90;;;;;;5042030;28;20230;-90
2022/09/19 05:03:30;;;;;;;0.00;0.00;;;10.10;99.90;;;;;;5042027;28;20214;-90
2022/09/19 05:05:59;;;;;;;0.00;0.00;;;10.10;99.90;;;;;;5042052;28;20619;-90
2022/09/19 05:08:30;;;;;;;0.00;0.00;;;10.20;99.90;;;;;;5042689;28;20715;-91
2022/09/19 05:10:59;;;;;;;0.00;0.00;;;10.20;99.90;;;;;;5043548;28;20225;-91
2022/09/19 05:13:30;;;;;;;0.00;0.00;;;10.30;99.90;;;;;;5044319;28;20201;-91
2022/09/19 05:16:01;;;;;;;0.00;0.00;;;10.20;99.90;;;;;;5043032;28;20250;-90
2022/09/19 05:18:34;;;;;;;0.00;0.00;;;10.20;99.90;;;;;;5043075;28;20497;-91
2022/09/19 05:21:06;;;;;;;0.00;0.00;;;10.30;99.90;;;;;;5041438;28;20598;-90
2022/09/19 05:23:39;;;;;;;0.00;0.00;;;10.30;99.90;;;;;;5041398;28;20449;-88
2022/09/19 05:26:09;;;;;;;0.00;0.00;;;10.40;99.90;;;;;;5045209;28;20214;-88
2022/09/19 05:28:38;;;;;;;0.00;0.00;;;10.40;99.90;;;;;;5043683;28;20440;-88
2022/09/19 05:31:07;;;;;;;0.00;0.00;;;10.50;99.90;;;;;;5041567;28;20479;-88
2022/09/19 05:33:36;;;;;;;0.00;0.00;;;10.50;99.90;;;;;;5040650;28;20442;-89
2022/09/19 05:36:20;;;;;;;0.00;0.00;;;10.60;99.90;;;;;;5042230;28;20959;-90
2022/09/19 05:38:48;;;;;;;0.00;0.00;;;10.70;99.90;;;;;;5041822;28;20466;-91
2022/09/19 05:41:17;;;;;;;0.00;0.00;;;10.70;99.90;;;;;;5041305;28;20473;-90
2022/09/19 05:43:45;;;;;;;0.00;0.00;;;10.80;99.90;;;;;;5043297;28;20442;-89
2022/09/19 05:46:13;;;;;;;0.00;0.00;;;10.80;99.90;;;;;;5043329;28;20952;-87
2022/09/19 05:48:40;;;;;;;0.00;0.00;;;10.90;99.90;;;;;;5041735;28;20436;-86
2022/09/19 05:51:08;;;;;;;0.00;0.00;;;10.90;99.90;;;;;;5051496;28;20465;-85
2022/09/19 05:53:56;;;;;;;0.00;0.00;;;10.90;99.90;;;;;;5045076;28;20440;-86
2022/09/19 05:56:24;;;;;;;0.00;0.00;;;10.90;99.90;;;;;;5038373;28;20461;-86
2022/09/19 05:58:55;;;;;;;0.00;0.00;;;10.80;99.90;;;;;;5039611;28;20473;-85
2022/09/19 06:01:23;;;;;;;0.00;0.00;;;10.80;99.90;;;;;;5039790;28;20477;-86
2022/09/19 06:03:51;;;;;;;0.00;0.00;;;10.80;99.90;;;;;;5039449;28;20445;-86
2022/09/19 06:06:19;;;;;;;0.00;0.00;;;10.70;99.90;;;;;;5038531;28;20947;-85
2022/09/19 06:08:57;;;;;;;0.00;0.00;;;10.60;99.90;;;;;;5037965;28;20445;-86
2022/09/19 06:11:24;;;;;;;0.00;0.00;;;10.60;99.90;;;;;;5039313;28;20460;-86
2022/09/19 06:16:39;;;;;;;0.00;0.00;;;10.50;99.90;;;;;;5040178;28;20190;-85
2022/09/19 06:19:07;;;;;;;0.00;0.00;;;10.60;99.90;;;;;;5039055;28;20480;-85
2022/09/19 06:21:35;;;;;;;0.00;0.00;;;10.60;99.90;;;;;;5039173;28;20928;-85
2022/09/19 06:24:07;;;;;;;0.00;0.00;;;10.60;99.90;;;;;;5040693;28;20445;-87
2022/09/19 06:26:35;;;;;;;0.00;0.00;;;10.50;99.90;;;;;;5040990;28;20449;-85
2022/09/19 06:29:03;;;;;;;0.00;0.00;;;10.60;99.90;;;;;;5041161;28;20202;-85
2022/09/19 06:31:31;;;;;;;0.00;0.00;;;10.60;99.90;;;;;;5041857;28;20457;-86
2022/09/19 06:33:59;;;;;;;0.00;0.00;;;10.60;99.90;;;;;;5040194;28;20628;-86
2022/09/19 06:36:26;;;;;;;0.00;0.00;;;10.70;99.90;;;;;;5042035;28;20425;-86
2022/09/19 06:38:54;;;;;;;0.00;0.00;;;10.80;99.90;;;;;;5040284;28;20449;-87
2022/09/19 06:41:24;;;;;;;0.00;0.00;;;10.80;99.90;;;;;;5040698;28;20460;-84
2022/09/19 06:43:52;;;;;;;0.00;0.00;;;10.90;99.90;;;;;;5039533;28;20448;-85
2022/09/19 06:46:20;;;;;;;0.00;0.00;;;10.90;99.90;;;;;;5040137;28;20460;-86
2022/09/19 06:48:48;;;;;;;0.00;0.00;;;11.00;99.90;;;;;;5039755;28;20940;-85
2022/09/19 06:51:16;;;;;;;0.00;0.00;;;11.10;99.90;;;;;;5042520;28;20815;-85
2022/09/19 06:53:47;;;;;;;0.00;0.00;;;11.20;99.90;;;;;;5051791;28;20476;-86
2022/09/19 06:59:16;;;;;;;0.00;0.00;;;11.40;99.90;;;;;;5018051;28;20465;-86
2022/09/19 07:02:14;;;;;;;0.00;0.00;;;11.50;99.90;;;;;;5017915;28;20839;-84
2022/09/19 07:04:45;;;;;;;0.00;0.00;;;11.60;99.90;;;;;;5018060;28;20454;-86
2022/09/19 07:07:16;;;;;;;0.00;0.00;;;11.80;99.90;;;;;;5017080;28;20465;-86
2022/09/19 07:09:47;;;;;;;0.00;0.00;;;11.80;99.90;;;;;;5017417;28;20457;-87
2022/09/19 07:12:15;;;;;;;0.00;0.00;;;11.90;99.90;;;;;;5016828;28;20446;-90
2022/09/19 07:14:48;;;;;;;0.00;0.00;;;12.00;99.90;;;;;;5016663;28;20901;-85
2022/09/19 07:17:16;;;;;;;0.00;0.00;;;12.10;99.90;;;;;;5016749;28;20454;-83
2022/09/19 07:19:44;;;;;;;0.00;0.00;;;12.20;99.90;;;;;;5028143;28;20476;-86
2022/09/19 07:22:16;;;;;;;0.00;0.00;;;12.20;99.90;;;;;;5040432;28;20465;-86
2022/09/19 07:24:48;;;;;;;0.00;0.00;;;12.30;99.90;;;;;;5039894;28;20429;-88
2022/09/19 07:27:16;;;;;;;0.00;0.00;;;12.40;99.90;;;;;;5038371;28;20523;-86
2022/09/19 07:29:44;;;;;;;0.00;0.00;;;12.50;99.90;;;;;;5037691;28;20864;-88
2022/09/19 07:32:25;;;;;;;0.00;0.00;;;12.60;99.90;;;;;;5037289;28;20898;-86
2022/09/19 07:34:56;;;;;;;0.00;0.00;;;12.70;99.90;;;;;;5038827;28;20478;-85
2022/09/19 07:37:32;;;;;;;0.00;0.00;;;12.80;99.90;;;;;;5037376;28;20456;-83
2022/09/19 07:40:02;;;;;;;0.00;0.00;;;12.90;99.90;;;;;;5037665;28;20485;-85
2022/09/19 07:43:13;;;;;;;0.00;0.00;;;13.00;99.90;;;;;;5037330;28;20453;-86
2022/09/19 07:45:50;;;;;;;0.00;0.00;;;13.10;99.90;;;;;;5037213;28;20449;-86
2022/09/19 07:48:28;;;;;;;0.00;0.00;;;13.20;99.90;;;;;;5038191;28;20479;-86
2022/09/19 07:51:01;;;;;;;0.00;0.00;;;13.30;99.90;;;;;;5037280;28;20476;-87
2022/09/19 07:53:38;;;;;;;0.00;0.00;;;13.30;99.90;;;;;;5040687;28;20471;-85
2022/09/19 07:56:16;;;;;;;0.00;0.00;;;13.40;99.90;;;;;;5047671;28;20974;-87
2022/09/19 07:58:52;;;;;;;0.00;0.00;;;13.50;99.90;;;;;;5038961;28;20472;-86
2022/09/19 08:01:23;;;;;;;0.00;0.00;;;13.60;99.90;;;;;;5039321;28;20488;-86
2022/09/19 08:03:55;;;;;;;0.00;0.00;;;13.70;99.90;;;;;;5040017;28;20553;-86
2022/09/19 08:06:24;;;;;;;0.00;0.00;;;13.70;99.90;;;;;;5040572;28;20476;-85
2022/09/19 08:08:52;;;;;;;0.00;0.00;;;13.80;99.90;;;;;;5039884;28;20469;-85
2022/09/19 08:11:21;;;;;;;0.00;0.00;;;13.90;99.90;;;;;;5040246;28;20548;-85
2022/09/19 08:13:49;;;;;;;0.00;0.00;;;14.00;99.90;;;;;;5039612;28;20449;-86
2022/09/19 08:16:17;;;;;;;0.00;0.00;;;14.10;99.90;;;;;;5040608;28;20479;-85
2022/09/19 08:18:48;;;;;;;0.00;0.00;;;14.20;99.90;;;;;;5040168;28;20437;-86
2022/09/19 08:21:19;;;;;;;0.00;0.00;;;14.30;99.90;;;;;;5039355;28;20583;-85
2022/09/19 08:23:52;;;;;;;0.00;0.00;;;14.30;99.90;;;;;;5040550;28;20457;-85
2022/09/19 08:26:21;;;;;;;0.00;0.00;;;14.30;99.90;;;;;;5040567;28;20449;-85
2022/09/19 08:28:51;;;;;;;0.00;0.00;;;14.40;99.90;;;;;;5038851;28;20453;-86
2022/09/19 08:31:24;;;;;;;0.00;0.00;;;14.40;99.90;;;;;;5039038;28;20583;-85
2022/09/19 08:34:01;;;;;;;0.00;0.00;;;14.50;99.90;;;;;;5039447;28;20531;-85
2022/09/19 08:36:38;;;;;;;0.00;0.00;;;14.60;99.90;;;;;;5038872;28;20522;-85
2022/09/19 08:39:06;;;;;;;0.00;0.00;;;14.60;99.90;;;;;;5039608;28;20920;-86
2022/09/19 08:41:49;;;;;;;0.00;0.00;;;14.70;99.90;;;;;;5039370;28;20984;-85
2022/09/19 08:44:27;;;;;;;0.00;0.00;;;14.80;99.90;;;;;;5039273;28;20468;-85
2022/09/19 08:47:06;;;;;;;0.00;0.00;;;15.00;99.90;;;;;;5040435;28;20452;-86
2022/09/19 08:49:38;;;;;;;0.00;0.00;;;15.20;99.90;;;;;;5026277;28;20438;-86
2022/09/19 08:52:12;;;;;;;0.00;0.00;;;15.20;99.90;;;;;;5021197;28;20755;-85
2022/09/19 08:54:44;;;;;;;0.00;0.00;;;15.20;99.90;;;;;;5022153;28;20453;-87
2022/09/19 08:57:17;;;;;;;0.00;0.00;;;15.30;99.90;;;;;;5038121;28;20513;-87
2022/09/19 08:59:47;;;;;;;0.00;0.00;;;15.40;99.90;;;;;;5042187;28;20430;-86
2022/09/19 09:02:29;;;;;;;0.00;0.00;;;15.50;99.90;;;;;;5039287;28;20503;-86
2022/09/19 09:05:25;;;;;;;0.00;0.00;;;15.50;99.90;;;;;;5019794;28;20845;-86
2022/09/19 09:08:02;;;;;;;0.00;0.00;;;15.50;99.90;;;;;;5044144;28;20927;-89
2022/09/19 09:10:45;;;;;;;0.00;0.00;;;15.60;99.90;;;;;;5039089;28;20481;-88
2022/09/19 09:13:26;;;;;;;0.00;0.00;;;15.70;99.90;;;;;;5039703;28;20495;-89
2022/09/19 09:16:23;;;;;;;0.00;0.00;;;15.80;99.90;;;;;;5039155;28;20793;-87
2022/09/19 09:19:12;;;;;;;0.00;0.00;;;15.90;99.90;;;;;;5038996;28;20457;-89
2022/09/19 09:21:51;;;;;;;0.00;0.00;;;16.10;99.90;;;;;;5038852;28;20480;-88
2022/09/19 09:24:25;;;;;;;0.00;0.00;;;16.30;99.90;;;;;;5039643;28;20445;-87
2022/09/19 09:27:05;;;;;;;0.00;0.00;;;16.50;99.90;;;;;;5039185;28;20483;-87
2022/09/19 09:29:40;;;;;;;0.00;0.00;;;16.60;99.90;;;;;;5039798;28;20452;-88
2022/09/19 09:32:17;;;;;;;0.00;0.00;;;16.70;99.90;;;;;;5040353;28;20499;-88
2022/09/19 09:34:50;;;;;;;0.00;0.00;;;16.90;99.90;;;;;;5041087;28;20544;-89
2022/09/19 09:37:23;;;;;;;0.00;0.00;;;17.00;99.90;;;;;;5040385;28;20778;-89
2022/09/19 09:40:09;;;;;;;0.00;0.00;;;17.10;99.90;;;;;;5047785;28;20493;-89
2022/09/19 09:46:34;;;;;;;0.00;0.00;;;17.40;99.90;;;;;;5029444;28;20887;-90
2022/09/19 09:49:08;;;;;;;0.00;0.00;;;17.40;99.90;;;;;;5039183;28;20541;-87
2022/09/19 09:51:48;;;;;;;0.00;0.00;;;17.30;99.90;;;;;;5039313;28;20481;-86
2022/09/19 09:57:57;;;;;;;;;;;;;;;;;;;;;
2022/09/19 10:03:36;;;;;;;0.00;0.00;;;17.00;99.90;;;;;;5039411;28;20427;-85
2022/09/19 10:06:12;;;;;;;0.00;0.00;;;16.90;99.90;;;;;;5028267;28;20471;-88
2022/09/19 10:08:58;;;;;;;0.00;0.00;;;16.90;99.90;;;;;;5038736;28;20493;-88
2022/09/19 10:11:48;;;;;;;0.00;0.00;;;17.00;99.90;;;;;;5036534;28;20476;-87
2022/09/19 10:14:44;;;;;;;0.00;0.00;;;17.10;99.90;;;;;;5039349;28;20516;-89
2022/09/19 10:17:20;;;;;;;0.00;0.00;;;17.20;99.90;;;;;;5038312;28;20429;-86
2022/09/19 10:19:57;;;;;;;0.00;0.00;;;17.20;99.90;;;;;;5037670;28;20484;-88
2022/09/19 10:22:25;;;;;;;0.00;0.00;;;17.20;99.90;;;;;;5037678;28;20541;-86
2022/09/19 10:25:18;;;;;;;0.00;0.00;;;17.20;99.90;;;;;;5035591;28;20456;-86
2022/09/19 10:27:53;;;;;;;0.00;0.00;;;17.30;99.90;;;;;;5037983;28;20497;-86
2022/09/19 10:30:25;;;;;;;0.00;0.00;;;17.40;99.90;;;;;;5038399;28;20468;-85
2022/09/19 10:32:54;;;;;;;0.00;0.00;;;17.50;99.90;;;;;;5038049;28;20442;-86
2022/09/19 10:35:31;;;;;;;0.00;0.00;;;17.70;99.90;;;;;;5038047;28;20449;-86
2022/09/19 10:38:04;;;;;;;0.00;0.00;;;17.60;99.90;;;;;;5038119;28;20904;-84
2022/09/19 10:40:36;;;;;;;0.00;0.00;;;17.60;99.90;;;;;;5038222;28;20469;-85
2022/09/19 10:43:21;;;;;;;0.00;0.00;;;17.60;99.90;;;;;;5040140;28;21005;-86
2022/09/19 10:45:50;;;;;;;0.00;0.00;;;17.60;99.90;;;;;;5042231;28;20457;-86
2022/09/19 10:48:26;;;;;;;0.00;0.00;;;17.60;99.90;;;;;;5036427;28;20431;-86
2022/09/19 10:50:54;;;;;;;0.00;0.00;;;17.60;99.90;;;;;;5036758;28;21067;-86
2022/09/19 10:53:27;;;;;;;0.00;0.00;;;17.70;99.90;;;;;;5036419;28;20792;-87
2022/09/19 10:55:57;;;;;;;0.00;0.00;;;17.80;99.90;;;;;;5038078;28;20427;-87
2022/09/19 10:58:28;;;;;;;0.00;0.00;;;17.90;99.90;;;;;;5039614;28;20425;-86
2022/09/19 11:01:01;;;;;;;0.00;0.00;;;18.00;99.90;;;;;;5046041;28;20455;-84
2022/09/19 11:03:40;;;;;;;0.00;0.00;;;18.00;99.90;;;;;;5050318;28;20500;-87
2022/09/19 11:06:33;;;;;;;0.00;0.00;;;17.90;99.90;;;;;;5036988;28;20469;-87
2022/09/19 11:16:30;;;;;;;0.00;0.00;;;17.80;99.90;;;;;;5037326;28;20872;-88
2022/09/19 11:27:14;;;;;;;0.00;0.00;;;18.20;99.90;;;;;;4976178;28;20437;-85
2022/09/19 11:30:11;;;;;;;0.00;0.00;;;18.00;99.90;;;;;;4981467;28;20471;-87
2022/09/19 11:33:16;;;;;;;0.00;0.00;;;17.90;99.90;;;;;;5021336;28;20478;-89
2022/09/19 11:36:11;;;;;;;0.00;0.00;;;17.90;99.90;;;;;;4991638;28;20459;-88
2022/09/19 11:38:51;;;;;;;0.00;0.00;;;18.00;99.90;;;;;;5022344;28;20430;-88
2022/09/19 11:41:54;;;;;;;0.00;0.00;;;18.20;99.90;;;;;;5021956;28;20493;-89
2022/09/19 11:44:45;;;;;;;0.00;0.00;;;18.40;99.90;;;;;;5022902;28;20434;-88
2022/09/19 11:47:38;;;;;;;0.00;0.00;;;18.70;99.90;;;;;;5016000;28;20485;-88
2022/09/19 11:50:31;;;;;;;0.00;0.00;;;18.90;99.90;;;;;;5022501;28;20487;-89
2022/09/19 11:53:18;;;;;;;0.00;0.00;;;19.10;99.90;;;;;;5024820;28;20472;-89
2022/09/19 11:55:54;;;;;;;0.00;0.00;;;19.30;99.90;;;;;;5035502;28;20929;-89
2022/09/19 11:58:30;;;;;;;0.00;0.00;;;19.30;99.90;;;;;;5041629;28;20492;-89
2022/09/19 12:01:09;;;;;;;0.00;0.00;;;19.20;99.90;;;;;;5043104;28;20821;-89
2022/09/19 12:04:01;;;;;;;0.00;0.00;;;19.10;99.90;;;;;;5052798;28;20483;-90
2022/09/19 12:06:55;;;;;;;0.00;0.00;;;18.90;99.90;;;;;;5057406;28;20451;-89
2022/09/19 12:09:27;;;;;;;0.00;0.00;;;18.70;99.90;;;;;;5043902;28;20550;-91
2022/09/19 12:12:01;;;;;;;0.00;0.00;;;18.50;99.90;;;;;;5045048;28;21070;-90
2022/09/19 12:14:33;;;;;;;0.00;0.00;;;18.30;99.90;;;;;;5044653;28;20472;-90
2022/09/19 12:17:13;;;;;;;0.00;0.00;;;18.10;99.90;;;;;;5045534;28;20422;-91
2022/09/19 12:19:50;;;;;;;0.00;0.00;;;17.80;99.90;;;;;;5044880;28;20454;-91
2022/09/19 12:22:22;;;;;;;0.00;0.00;;;17.50;99.90;;;;;;5044855;28;20964;-90
2022/09/19 12:25:01;;;;;;;0.00;0.00;;;17.20;99.90;;;;;;5046011;28;20418;-90
2022/09/19 12:27:37;;;;;;;0.00;0.00;;;16.70;99.90;;;;;;5043609;28;20477;-90
2022/09/19 12:30:13;;;;;;;0.00;0.00;;;16.10;99.90;;;;;;5031634;28;20965;-91
2022/09/19 12:32:51;;;;;;;0.00;0.00;;;15.40;99.90;;;;;;5032486;28;20510;-91
2022/09/19 12:35:30;;;;;;;0.00;0.00;;;14.90;99.90;;;;;;5043572;28;20429;-90
2022/09/19 12:38:08;;;;;;;0.00;0.00;;;14.50;99.90;;;;;;5043854;28;20453;-90
2022/09/19 12:40:45;;;;;;;0.00;0.00;;;14.20;99.90;;;;;;5041226;28;20488;-90
2022/09/19 12:43:24;;;;;;;0.00;0.00;;;13.90;99.90;;;;;;5040358;28;21034;-90
2022/09/19 12:45:59;;;;;;;0.00;0.00;;;13.80;99.90;;;;;;5041280;28;20440;-89
2022/09/19 12:48:36;;;;;;;0.00;0.00;;;13.70;99.90;;;;;;5039088;28;20448;-89
2022/09/19 12:51:10;;;;;;;0.00;0.00;;;13.70;99.90;;;;;;5041421;28;20979;-91
2022/09/19 12:53:45;;;;;;;0.00;0.00;;;13.70;99.90;;;;;;5040689;28;20436;-89
2022/09/19 12:56:20;;;;;;;0.00;0.00;;;13.70;99.90;;;;;;5041568;28;20952;-88
2022/09/19 12:58:58;;;;;;;0.00;0.00;;;13.80;99.90;;;;;;5043096;28;20423;-88
2022/09/19 13:01:32;;;;;;;0.00;0.00;;;13.80;99.90;;;;;;5042551;28;20968;-90
2022/09/19 13:04:21;;;;;;;0.00;0.00;;;13.90;99.90;;;;;;5042247;28;20559;-90
2022/09/19 13:06:54;;;;;;;0.00;0.00;;;13.80;99.90;;;;;;5052036;28;20414;-89
2022/09/19 13:09:26;;;;;;;0.00;0.00;;;13.80;99.90;;;;;;5048157;28;20472;-89
2022/09/19 13:12:07;;;;;;;0.00;0.00;;;13.90;99.90;;;;;;5041123;28;20544;-88
2022/09/19 13:14:44;;;;;;;0.00;0.00;;;13.90;99.90;;;;;;5053320;28;20440;-88
2022/09/19 13:25:38;;;;;;;0.00;0.00;;;14.10;99.90;;;;;;5039477;28;20532;-90
2022/09/19 13:28:44;;;;;;;0.00;0.00;;;14.10;99.90;;;;;;5040097;28;20456;-88
2022/09/19 13:31:17;;;;;;;0.00;0.00;;;14.20;99.90;;;;;;5008975;28;20488;-89
2022/09/19 13:33:49;;;;;;;0.00;0.00;;;14.20;99.90;;;;;;5038774;28;20475;-88
2022/09/19 13:36:43;;;;;;;0.00;0.00;;;14.20;99.90;;;;;;5038280;28;20464;-88
2022/09/19 13:39:46;;;;;;;0.00;0.00;;;14.20;99.90;;;;;;5038849;28;20414;-88
2022/09/19 13:42:24;;;;;;;0.00;0.00;;;14.20;99.90;;;;;;5040380;28;20410;-87
2022/09/19 13:45:01;;;;;;;0.00;0.00;;;14.20;99.90;;;;;;5038533;28;20448;-88
2022/09/19 13:47:39;;;;;;;0.00;0.00;;;14.10;99.90;;;;;;5038163;28;20523;-86
2022/09/19 13:50:22;;;;;;;0.00;0.00;;;14.10;99.90;;;;;;5038017;28;20577;-88
2022/09/19 13:52:58;;;;;;;0.00;0.00;;;14.00;99.90;;;;;;5038339;28;20445;-88
2022/09/19 13:55:33;;;;;;;0.00;0.00;;;13.90;99.90;;;;;;5018118;28;20437;-88
2022/09/19 13:58:18;;;;;;;0.00;0.00;;;13.90;99.90;;;;;;5021206;28;20468;-88
2022/09/19 14:01:06;;;;;;;0.00;0.00;;;13.90;99.90;;;;;;5018619;28;20457;-88
2022/09/19 14:03:45;;;;;;;0.00;0.00;;;13.90;99.90;;;;;;5019393;28;20909;-88
2022/09/19 14:06:21;;;;;;;0.00;0.00;;;13.90;99.90;;;;;;5030291;28;20425;-88
2022/09/19 14:09:14;;;;;;;0.00;0.00;;;14.00;99.90;;;;;;5044878;28;20448;-87
2022/09/19 14:12:45;;;;;;;0.00;0.00;;;14.10;99.90;;;;;;5046760;28;20453;-89
2022/09/19 14:15:50;;;;;;;0.00;0.00;;;14.20;99.90;;;;;;5027461;28;20464;-89
2022/09/19 14:18:46;;;;;;;0.00;0.00;;;14.40;99.90;;;;;;5021354;28;20500;-90
2022/09/19 14:21:55;;;;;;;0.00;0.00;;;14.60;99.90;;;;;;5019072;28;20461;-88